Time;durP1;ratioP1;P1;durP2;ratioP2;P2;SDS_P1;SDS_P2;PMS_P1;PMS_P2;Temp;Humidity;BMP_temperature;BMP_pressure;BME280_temperature;BME280_humidity;BME280_pressure;Samples;Min_cycle;Max_cycle;Signal;HPM_P1;HPM_P2
2022/02/28 00:00:12;;;;;;;73.90;39.20;;;;;;;-2.72;100.00;100517.31;105281;1270;61407;-76
2022/02/28 00:02:58;;;;;;;63.30;37.90;;;;;;;-2.74;100.00;100511.89;105159;1270;62059;-77
2022/02/28 00:05:25;;;;;;;65.30;38.10;;;;;;;-2.76;100.00;100511.52;105308;1270;61302;-76
2022/02/28 00:07:52;;;;;;;67.90;38.10;;;;;;;-2.79;100.00;100507.66;105338;1270;70254;-76
2022/02/28 00:10:18;;;;;;;63.10;37.40;;;;;;;-2.82;100.00;100510.23;105324;1269;61398;-78
2022/02/28 00:12:45;;;;;;;65.10;36.70;;;;;;;-2.86;100.00;100506.71;105367;1268;61290;-77
2022/02/28 00:15:14;;;;;;;63.60;37.40;;;;;;;-2.90;100.00;100504.42;105327;1270;62113;-76
2022/02/28 00:17:41;;;;;;;64.60;37.50;;;;;;;-2.92;100.00;100505.42;105269;1270;75172;-75
2022/02/28 00:20:10;;;;;;;67.20;38.40;;;;;;;-2.94;100.00;100503.83;105287;1270;70239;-75
2022/02/28 00:22:38;;;;;;;62.50;39.50;;;;;;;-2.95;100.00;100499.83;105145;1271;73510;-72
2022/02/28 00:25:06;;;;;;;66.30;37.90;;;;;;;-2.95;100.00;100497.05;105057;1271;61160;-77
2022/02/28 00:27:33;;;;;;;63.40;37.40;;;;;;;-2.95;100.00;100490.78;104979;1270;62082;-77
2022/02/28 00:30:00;;;;;;;64.90;37.20;;;;;;;-2.93;100.00;100485.92;105240;1270;75070;-75
2022/02/28 00:32:27;;;;;;;60.00;35.00;;;;;;;-2.92;100.00;100484.04;105569;1270;70641;-76
2022/02/28 00:34:54;;;;;;;53.60;32.10;;;;;;;-2.90;100.00;100482.51;105319;1270;61980;-75
2022/02/28 00:37:20;;;;;;;56.10;34.50;;;;;;;-2.86;100.00;100481.50;105335;1270;61969;-76
2022/02/28 00:39:47;;;;;;;60.20;35.10;;;;;;;-2.84;100.00;100480.98;105287;1269;61348;-76
2022/02/28 00:42:14;;;;;;;53.70;31.90;;;;;;;-2.84;100.00;100480.98;105354;1270;74586;-75
2022/02/28 00:44:41;;;;;;;54.20;31.90;;;;;;;-2.83;100.00;100486.74;105354;1270;69200;-75
2022/02/28 00:47:08;;;;;;;50.00;29.30;;;;;;;-2.81;100.00;100485.20;105357;1270;72793;-74
2022/02/28 00:49:35;;;;;;;47.50;29.80;;;;;;;-2.79;100.00;100484.70;105310;1270;61169;-75
2022/02/28 00:52:03;;;;;;;46.30;29.40;;;;;;;-2.77;100.00;100480.56;104981;1271;234032;-76
2022/02/28 00:54:30;;;;;;;48.10;28.60;;;;;;;-2.74;100.00;100488.41;105248;1270;75893;-75
2022/02/28 00:56:57;;;;;;;47.80;28.50;;;;;;;-2.72;100.00;100483.55;105327;1270;70422;-75
2022/02/28 00:59:24;;;;;;;51.80;30.70;;;;;;;-2.71;100.00;100484.27;105153;1271;73358;-75
2022/02/28 01:01:51;;;;;;;47.50;30.30;;;;;;;-2.71;100.00;100480.63;105391;1270;61327;-75
2022/02/28 01:04:18;;;;;;;45.80;29.00;;;;;;;-2.72;100.00;100480.61;105388;1270;61254;-76
2022/02/28 01:06:45;;;;;;;49.30;28.30;;;;;;;-2.73;100.00;100482.34;105107;1270;75108;-75
2022/02/28 01:09:12;;;;;;;51.90;29.20;;;;;;;-2.75;100.00;100475.87;105368;1270;67280;-75
2022/02/28 01:11:39;;;;;;;50.40;31.10;;;;;;;-2.77;100.00;100474.11;105384;1270;73072;-74
2022/02/28 01:14:05;;;;;;;52.80;31.50;;;;;;;-2.79;100.00;100471.48;105410;1269;61350;-75
2022/02/28 01:16:32;;;;;;;53.50;31.50;;;;;;;-2.82;100.00;100469.02;105396;1269;61138;-75
2022/02/28 01:18:58;;;;;;;52.40;31.20;;;;;;;-2.83;100.00;100469.17;105361;1270;75439;-76
2022/02/28 01:21:25;;;;;;;52.50;30.10;;;;;;;-2.86;100.00;100468.27;105401;1270;70185;-75
2022/02/28 01:23:52;;;;;;;48.10;28.60;;;;;;;-2.89;100.00;100463.55;105453;1270;61253;-75
2022/02/28 01:26:18;;;;;;;51.80;28.90;;;;;;;-2.92;100.00;100467.17;105502;1268;61159;-75
2022/02/28 01:28:45;;;;;;;53.90;30.00;;;;;;;-2.94;100.00;100469.75;105632;1270;61430;-74
2022/02/28 01:31:12;;;;;;;54.20;30.40;;;;;;;-2.97;100.00;100469.37;105591;1270;75291;-74
2022/02/28 01:33:39;;;;;;;48.60;29.10;;;;;;;-3.02;100.00;100464.61;105684;1270;68306;-75
2022/02/28 01:36:05;;;;;;;52.10;29.80;;;;;;;-3.06;100.00;100461.43;106400;1270;73208;-76
2022/02/28 01:38:32;;;;;;;51.50;31.20;;;;;;;-3.09;100.00;100457.77;105780;1270;61312;-75
2022/02/28 01:40:59;;;;;;;50.40;29.60;;;;;;;-3.12;100.00;100460.17;107003;1269;61160;-74
2022/02/28 01:43:25;;;;;;;51.50;29.20;;;;;;;-3.12;100.00;100462.06;107305;1270;75023;-76
2022/02/28 01:45:52;;;;;;;48.60;28.80;;;;;;;-3.12;100.00;100460.16;107151;1269;61393;-73
2022/02/28 01:48:19;;;;;;;54.00;28.60;;;;;;;-3.13;100.00;100459.45;107600;1270;73333;-73
2022/02/28 01:50:45;;;;;;;50.90;31.20;;;;;;;-3.13;100.00;100461.20;107199;1269;60416;-74
2022/02/28 01:53:11;;;;;;;47.70;29.60;;;;;;;-3.13;100.00;100461.54;105384;1270;61325;-75
2022/02/28 01:55:38;;;;;;;56.70;31.60;;;;;;;-3.13;100.00;100458.42;105370;1270;61371;-76
2022/02/28 01:58:06;;;;;;;54.50;30.30;;;;;;;-3.14;100.00;100455.79;105307;1270;68419;-74
2022/02/28 02:00:34;;;;;;;49.30;28.40;;;;;;;-3.15;100.00;100455.08;105391;1270;74345;-75
2022/02/28 02:03:02;;;;;;;47.80;28.40;;;;;;;-3.16;100.00;100453.52;105420;1270;61301;-75
2022/02/28 02:05:29;;;;;;;48.90;29.00;;;;;;;-3.16;100.00;100455.94;105351;1270;61373;-75
2022/02/28 02:07:56;;;;;;;51.40;29.50;;;;;;;-3.18;100.00;100451.21;105319;1270;75153;-76
2022/02/28 02:10:23;;;;;;;50.50;29.80;;;;;;;-3.20;100.00;100451.36;105303;1270;69341;-75
2022/02/28 02:12:49;;;;;;;47.60;28.70;;;;;;;-3.21;100.00;100446.47;105315;1270;62875;-75
2022/02/28 02:15:17;;;;;;;47.30;30.00;;;;;;;-3.22;100.00;100443.69;105300;1270;61279;-76
2022/02/28 02:17:43;;;;;;;48.10;30.90;;;;;;;-3.23;100.00;100442.45;105363;1270;61269;-76
2022/02/28 02:20:31;;;;;;;46.20;28.60;;;;;;;-3.25;100.00;100438.62;105322;1270;74895;-75
2022/02/28 02:23:00;;;;;;;51.40;29.80;;;;;;;-3.26;100.00;100442.25;105321;1270;70684;-74
2022/02/28 02:25:27;;;;;;;49.30;29.80;;;;;;;-3.28;100.00;100450.58;105298;1270;74197;-76
2022/02/28 02:27:55;;;;;;;44.00;27.60;;;;;;;-3.31;100.00;100451.92;105344;1270;61466;-74
2022/02/28 02:30:22;;;;;;;46.70;28.10;;;;;;;-3.32;100.00;100449.11;105494;1270;61904;-76
2022/02/28 02:32:48;;;;;;;53.80;29.60;;;;;;;-3.34;100.00;100445.47;105310;1269;74682;-74
2022/02/28 02:35:15;;;;;;;46.90;28.00;;;;;;;-3.35;100.00;100442.15;105323;1270;69269;-75
2022/02/28 02:37:41;;;;;;;47.70;27.50;;;;;;;-3.37;100.00;100448.04;105362;1270;70743;-76
2022/02/28 02:40:09;;;;;;;46.40;28.70;;;;;;;-3.41;100.00;100441.89;105316;1270;61361;-75
2022/02/28 02:42:36;;;;;;;46.80;28.10;;;;;;;-3.45;100.00;100441.67;105392;1270;61371;-75
2022/02/28 02:45:03;;;;;;;47.90;30.10;;;;;;;-3.47;100.00;100438.69;105340;1270;76333;-74
2022/02/28 02:47:30;;;;;;;49.50;29.60;;;;;;;-3.50;100.00;100441.77;105224;1271;69453;-75
2022/02/28 02:49:56;;;;;;;53.50;32.60;;;;;;;-3.53;100.00;100439.65;105434;1270;61354;-76
2022/02/28 02:52:23;;;;;;;52.70;31.20;;;;;;;-3.56;100.00;100438.39;105425;1270;61461;-74
2022/02/28 02:54:50;;;;;;;52.80;31.60;;;;;;;-3.59;100.00;100440.09;105645;1271;61861;-75
2022/02/28 02:57:18;;;;;;;52.30;32.80;;;;;;;-3.63;100.00;100436.05;106157;1270;61191;-76
2022/02/28 02:59:45;;;;;;;53.90;31.10;;;;;;;-3.67;100.00;100441.02;105698;1270;70129;-76
2022/02/28 03:02:11;;;;;;;54.30;34.00;;;;;;;-3.73;100.00;100436.94;105336;1270;73234;-77
2022/02/28 03:04:38;;;;;;;51.70;32.00;;;;;;;-3.77;100.00;100436.55;105298;1270;61272;-76
2022/02/28 03:07:15;;;;;;;55.50;32.70;;;;;;;-3.81;100.00;100438.57;105378;1270;61356;-76
2022/02/28 03:09:43;;;;;;;51.80;32.40;;;;;;;-3.87;100.00;100444.56;105416;1270;76324;-75
2022/02/28 03:12:10;;;;;;;49.20;30.40;;;;;;;-3.90;100.00;100446.24;105350;1269;70251;-75
2022/02/28 03:14:37;;;;;;;56.60;33.70;;;;;;;-3.95;100.00;100449.30;105346;1270;74284;-76
2022/02/28 03:17:04;;;;;;;56.50;34.30;;;;;;;-3.98;100.00;100447.17;105283;1270;61269;-75
2022/02/28 03:19:31;;;;;;;68.20;35.90;;;;;;;-4.01;100.00;100451.13;105311;1269;61282;-74
2022/02/28 03:21:57;;;;;;;53.60;33.20;;;;;;;-4.04;100.00;100458.70;105368;1270;74869;-76
2022/02/28 03:24:24;;;;;;;56.80;33.60;;;;;;;-4.08;100.00;100457.09;105412;1270;68652;-74
2022/02/28 03:26:51;;;;;;;59.30;33.40;;;;;;;-4.11;100.00;100460.85;105395;1270;73333;-76
2022/02/28 03:29:17;;;;;;;55.80;31.90;;;;;;;-4.11;100.00;100465.89;105374;1270;61267;-75
2022/02/28 03:31:44;;;;;;;52.80;31.80;;;;;;;-4.11;100.00;100465.70;105303;1270;61441;-76
2022/02/28 03:34:10;;;;;;;55.70;32.70;;;;;;;-4.10;100.00;100461.91;105336;1270;61361;-76
2022/02/28 03:36:36;;;;;;;50.40;29.80;;;;;;;-4.09;100.00;100462.63;105274;1270;61384;-76
2022/02/28 03:39:03;;;;;;;54.70;31.70;;;;;;;-4.08;100.00;100460.38;105296;1270;61351;-76
2022/02/28 03:41:30;;;;;;;59.90;36.80;;;;;;;-4.06;100.00;100459.20;105351;1268;61381;-77
2022/02/28 03:43:56;;;;;;;64.70;37.40;;;;;;;-4.04;100.00;100459.22;105361;1270;61277;-77
2022/02/28 03:46:23;;;;;;;53.20;32.30;;;;;;;-4.04;100.00;100452.29;105050;1271;75116;-74
2022/02/28 03:48:49;;;;;;;58.90;35.10;;;;;;;-4.05;100.00;100449.65;105329;1269;61310;-75
2022/02/28 03:51:16;;;;;;;63.70;35.10;;;;;;;-4.06;100.00;100457.64;105352;1270;61379;-75
2022/02/28 03:53:42;;;;;;;58.20;33.90;;;;;;;-4.07;100.00;100452.07;105338;1268;61362;-75
2022/02/28 03:56:08;;;;;;;52.10;31.70;;;;;;;-4.07;100.00;100452.24;105292;1269;61316;-75
2022/02/28 03:58:38;;;;;;;55.50;33.30;;;;;;;-4.04;100.00;100454.88;105237;1270;61432;-75
2022/02/28 04:01:05;;;;;;;54.30;32.80;;;;;;;-4.04;100.00;100446.73;105299;1269;70114;-76
2022/02/28 04:03:32;;;;;;;58.00;35.00;;;;;;;-4.02;100.00;100446.25;105290;1270;74451;-76
2022/02/28 04:05:59;;;;;;;57.80;37.70;;;;;;;-4.01;100.00;100446.42;105316;1270;61267;-75
2022/02/28 04:08:25;;;;;;;59.30;39.70;;;;;;;-4.00;100.00;100450.96;105339;1268;61413;-75
2022/02/28 04:10:52;;;;;;;60.70;35.80;;;;;;;-4.00;100.00;100450.45;105323;1268;61166;-77
2022/02/28 04:13:18;;;;;;;55.20;33.80;;;;;;;-3.99;100.00;100454.10;105315;1270;61139;-76
2022/02/28 04:15:45;;;;;;;56.20;33.50;;;;;;;-3.97;100.00;100456.39;105307;1270;61348;-75
2022/02/28 04:18:11;;;;;;;58.50;33.20;;;;;;;-3.97;100.00;100458.13;105296;1270;61354;-76
2022/02/28 04:20:39;;;;;;;48.20;29.40;;;;;;;-3.95;100.00;100462.30;105313;1270;61292;-77
2022/02/28 04:23:05;;;;;;;48.00;30.30;;;;;;;-3.94;100.00;100454.70;105160;1270;75201;-75
2022/02/28 04:25:32;;;;;;;45.70;26.90;;;;;;;-3.92;100.00;100460.63;105331;1270;61289;-76
2022/02/28 04:27:58;;;;;;;46.20;27.50;;;;;;;-3.92;100.00;100459.24;105321;1269;61247;-76
2022/02/28 04:30:25;;;;;;;46.10;27.90;;;;;;;-3.92;100.00;100458.36;105059;1270;61400;-74
2022/02/28 04:32:51;;;;;;;53.10;30.40;;;;;;;-3.91;100.00;100461.85;105289;1270;61334;-76
2022/02/28 04:35:18;;;;;;;52.00;31.30;;;;;;;-3.93;100.00;100462.86;105312;1270;61364;-77
2022/02/28 04:37:46;;;;;;;53.40;33.20;;;;;;;-3.97;100.00;100466.98;105054;1270;66339;-75
2022/02/28 04:40:13;;;;;;;63.50;35.30;;;;;;;-3.99;100.00;100468.51;105301;1270;73130;-76
2022/02/28 04:42:40;;;;;;;56.70;33.40;;;;;;;-4.02;100.00;100467.61;105294;1270;61307;-75
2022/02/28 04:45:07;;;;;;;58.50;37.60;;;;;;;-4.02;100.00;100468.82;105317;1270;61791;-76
2022/02/28 04:47:34;;;;;;;65.50;39.70;;;;;;;-4.05;100.00;100469.11;105316;1271;73851;-76
2022/02/28 04:50:00;;;;;;;73.60;43.50;;;;;;;-4.06;100.00;100475.34;105262;1270;69174;-76
2022/02/28 04:52:27;;;;;;;65.20;41.60;;;;;;;-4.05;100.00;100473.79;105292;1270;74099;-74
2022/02/28 04:54:53;;;;;;;72.90;42.70;;;;;;;-4.04;100.00;100469.98;105306;1270;61246;-76
2022/02/28 04:57:20;;;;;;;71.40;42.90;;;;;;;-4.04;100.00;100470.16;105335;1270;61387;-74
2022/02/28 04:59:46;;;;;;;75.70;46.10;;;;;;;-4.04;100.00;100473.11;105332;1270;61266;-77
2022/02/28 05:02:13;;;;;;;71.10;44.70;;;;;;;-4.06;100.00;100475.88;105362;1270;61408;-75
2022/02/28 05:04:39;;;;;;;85.70;51.10;;;;;;;-4.06;100.00;100467.88;105330;1270;61285;-75
2022/02/28 05:07:06;;;;;;;73.50;45.80;;;;;;;-4.06;100.00;100468.04;105330;1269;61307;-76
2022/02/28 05:09:33;;;;;;;72.30;46.20;;;;;;;-4.05;100.00;100467.20;105343;1270;61241;-72
2022/02/28 05:12:00;;;;;;;67.40;42.20;;;;;;;-4.04;100.00;100469.98;105294;1270;76062;-75
2022/02/28 05:14:26;;;;;;;70.70;43.40;;;;;;;-4.03;100.00;100475.20;105313;1270;62910;-76
2022/02/28 05:16:53;;;;;;;67.00;41.90;;;;;;;-4.03;100.00;100473.48;105317;1270;61365;-75
2022/02/28 05:19:20;;;;;;;72.60;43.50;;;;;;;-4.02;100.00;100471.95;105342;1270;61295;-76
2022/02/28 05:21:46;;;;;;;75.20;44.00;;;;;;;-4.00;100.00;100477.70;105319;1270;61333;-76
2022/02/28 05:24:13;;;;;;;72.60;41.80;;;;;;;-3.97;100.00;100477.56;105330;1270;61227;-78
2022/02/28 05:26:39;;;;;;;67.80;41.30;;;;;;;-3.95;100.00;100477.08;105376;1270;61302;-76
2022/02/28 05:29:05;;;;;;;71.30;41.30;;;;;;;-3.93;100.00;100482.48;105316;1270;61467;-75
2022/02/28 05:31:32;;;;;;;64.70;39.70;;;;;;;-3.93;100.00;100482.14;105325;1270;61373;-75
2022/02/28 05:33:58;;;;;;;56.80;35.20;;;;;;;-3.93;100.00;100483.35;105014;1271;60435;-77
2022/02/28 05:36:25;;;;;;;54.10;32.10;;;;;;;-3.93;100.00;100487.34;105352;1270;61336;-74
2022/02/28 05:38:52;;;;;;;51.50;31.20;;;;;;;-3.93;100.00;100490.98;105281;1270;61246;-74
2022/02/28 05:41:18;;;;;;;57.10;33.40;;;;;;;-3.92;100.00;100493.25;105295;1270;61371;-75
2022/02/28 05:43:45;;;;;;;54.70;36.40;;;;;;;-3.91;100.00;100491.02;105276;1270;61351;-74
2022/02/28 05:46:11;;;;;;;62.90;38.30;;;;;;;-3.92;100.00;100496.03;105343;1270;61222;-75
2022/02/28 05:48:38;;;;;;;60.70;38.20;;;;;;;-3.93;100.00;100490.64;105335;1270;61358;-76
2022/02/28 05:51:04;;;;;;;61.90;38.00;;;;;;;-3.93;100.00;100496.88;105293;1270;61349;-75
2022/02/28 05:53:31;;;;;;;59.40;36.40;;;;;;;-3.93;100.00;100502.27;105327;1270;61389;-75
2022/02/28 05:55:58;;;;;;;58.10;36.20;;;;;;;-3.92;100.00;100494.46;105018;1271;61315;-73
2022/02/28 05:58:24;;;;;;;52.20;34.50;;;;;;;-3.92;100.00;100495.17;105298;1270;62421;-75
2022/02/28 06:00:51;;;;;;;59.00;36.90;;;;;;;-3.91;100.00;100493.63;105359;1269;61268;-76
2022/02/28 06:03:17;;;;;;;60.50;39.00;;;;;;;-3.89;100.00;100496.96;105335;1270;61256;-75
2022/02/28 06:05:44;;;;;;;45.70;29.20;;;;;;;-3.88;100.00;100503.74;105156;1271;61316;-77
2022/02/28 06:08:10;;;;;;;50.00;33.10;;;;;;;-3.86;100.00;100507.77;105279;1270;61259;-75
2022/02/28 06:10:37;;;;;;;48.80;30.90;;;;;;;-3.83;100.00;100510.08;105332;1270;61368;-75
2022/02/28 06:13:03;;;;;;;55.10;33.10;;;;;;;-3.80;100.00;100508.55;105340;1270;61230;-75
2022/02/28 06:15:29;;;;;;;52.00;33.70;;;;;;;-3.74;100.00;100503.43;105064;1270;61369;-75
2022/02/28 06:17:59;;;;;;;50.40;34.40;;;;;;;-3.67;100.00;100511.00;105337;1270;61393;-75
2022/02/28 06:20:26;;;;;;;51.90;33.60;;;;;;;-3.56;100.00;100509.77;105353;1269;61339;-76
2022/02/28 06:22:52;;;;;;;48.40;32.70;;;;;;;-3.41;100.00;100507.91;105330;1270;61900;-77
2022/02/28 06:25:20;;;;;;;46.60;33.50;;;;;;;-3.25;100.00;100510.04;105369;1269;76370;-74
2022/02/28 06:27:46;;;;;;;49.90;31.40;;;;;;;-3.08;100.00;100514.27;105338;1270;69171;-76
2022/02/28 06:30:14;;;;;;;46.40;29.60;;;;;;;-2.95;100.00;100513.03;105156;1270;61263;-75
2022/02/28 06:32:40;;;;;;;39.00;27.30;;;;;;;-2.88;100.00;100515.21;105336;1270;61337;-75
2022/02/28 06:35:08;;;;;;;41.10;28.70;;;;;;;-2.80;100.00;100512.88;105343;1270;61243;-75
2022/02/28 06:37:34;;;;;;;39.70;27.80;;;;;;;-2.69;100.00;100514.91;105092;1270;75332;-76
2022/02/28 06:40:03;;;;;;;42.90;26.50;;;;;;;-2.61;100.00;100520.91;105328;1270;70106;-75
2022/02/28 06:42:30;;;;;;;39.90;27.50;;;;;;;-2.59;100.00;100520.59;105296;1270;74157;-76
2022/02/28 06:44:56;;;;;;;37.90;26.20;;;;;;;-2.59;100.00;100524.58;105353;1270;61306;-76
2022/02/28 06:47:23;;;;;;;44.00;26.50;;;;;;;-2.58;100.00;100522.50;105348;1270;61224;-75
2022/02/28 06:49:49;;;;;;;40.70;26.60;;;;;;;-2.55;100.00;100523.75;105367;1270;61259;-76
2022/02/28 06:52:17;;;;;;;43.00;27.70;;;;;;;-2.51;100.00;100526.05;105331;1270;69450;-76
2022/02/28 06:54:43;;;;;;;44.90;27.80;;;;;;;-2.47;100.00;100524.36;105167;1270;74325;-75
2022/02/28 06:57:12;;;;;;;47.10;30.10;;;;;;;-2.40;100.00;100523.73;105352;1270;61298;-76
2022/02/28 06:59:38;;;;;;;48.60;28.70;;;;;;;-2.35;100.00;100526.58;105135;1270;61163;-75
2022/02/28 07:02:05;;;;;;;52.90;31.10;;;;;;;-2.28;100.00;100526.66;105769;1270;76130;-75
2022/02/28 07:04:32;;;;;;;44.40;27.10;;;;;;;-2.20;100.00;100532.30;105381;1270;61205;-75
2022/02/28 07:07:00;;;;;;;45.10;29.40;;;;;;;-2.10;100.00;100531.15;105358;1270;74219;-77
2022/02/28 07:09:26;;;;;;;43.60;29.20;;;;;;;-2.04;100.00;100526.16;105356;1270;61352;-75
2022/02/28 07:11:53;;;;;;;43.50;29.10;;;;;;;-1.96;100.00;100532.69;105393;1270;61259;-75
2022/02/28 07:14:19;;;;;;;38.50;26.30;;;;;;;-1.88;100.00;100531.52;105462;1270;61224;-76
2022/02/28 07:16:46;;;;;;;37.80;25.70;;;;;;;-1.86;100.00;100534.33;105497;1270;61368;-78
2022/02/28 07:19:13;;;;;;;40.30;25.70;;;;;;;-1.91;100.00;100534.29;105453;1270;72996;-77
2022/02/28 07:21:39;;;;;;;41.50;26.00;;;;;;;-1.90;100.00;100539.02;107036;1270;61250;-75
2022/02/28 07:24:06;;;;;;;38.20;25.50;;;;;;;-1.85;100.00;100540.61;104291;1270;1003479;-76
2022/02/28 07:26:34;;;;;;;33.90;25.00;;;;;;;-1.75;100.00;100538.61;105589;1270;75342;-76
2022/02/28 07:29:01;;;;;;;39.20;25.50;;;;;;;-1.66;100.00;100545.48;105404;1270;69303;-77
2022/02/28 07:31:27;;;;;;;39.60;26.30;;;;;;;-1.60;100.00;100551.95;105368;1270;74358;-75
2022/02/28 07:33:54;;;;;;;36.60;25.60;;;;;;;-1.57;100.00;100556.16;105337;1270;61171;-82
2022/02/28 07:36:20;;;;;;;35.80;25.60;;;;;;;-1.47;100.00;100553.63;105879;1270;61316;-76
2022/02/28 07:38:47;;;;;;;36.30;26.00;;;;;;;-1.34;100.00;100555.63;105330;1270;61392;-77
2022/02/28 07:41:14;;;;;;;35.90;25.00;;;;;;;-1.22;100.00;100559.70;105105;1271;61249;-77
2022/02/28 07:43:40;;;;;;;35.20;24.10;;;;;;;-1.10;100.00;100552.29;105348;1270;73839;-76
2022/02/28 07:46:07;;;;;;;37.00;24.20;;;;;;;-0.95;100.00;100559.52;105369;1270;61260;-75
2022/02/28 07:48:33;;;;;;;33.50;24.70;;;;;;;-0.81;100.00;100555.05;105279;1270;61358;-76
2022/02/28 07:50:59;;;;;;;36.40;24.20;;;;;;;-0.70;100.00;100557.02;105306;1270;61297;-77
2022/02/28 07:53:26;;;;;;;26.90;20.30;;;;;;;-0.61;100.00;100556.53;105306;1270;69310;-76
2022/02/28 07:55:53;;;;;;;18.60;13.40;;;;;;;-0.54;100.00;100563.02;105296;1270;61159;-75
2022/02/28 07:58:19;;;;;;;19.60;13.10;;;;;;;-0.49;100.00;100563.19;105286;1270;61168;-76
2022/02/28 08:00:46;;;;;;;19.90;12.30;;;;;;;-0.41;100.00;100564.79;105336;1270;61379;-75
2022/02/28 08:03:12;;;;;;;19.50;11.70;;;;;;;-0.29;100.00;100565.87;105274;1270;61282;-75
2022/02/28 08:05:39;;;;;;;15.00;11.10;;;;;;;-0.13;100.00;100569.75;105196;1270;70155;-76
2022/02/28 08:08:05;;;;;;;16.80;10.90;;;;;;;0.02;100.00;100568.89;105298;1270;61398;-76
2022/02/28 08:10:32;;;;;;;16.40;11.30;;;;;;;0.20;100.00;100564.20;105353;1270;61245;-75
2022/02/28 08:12:58;;;;;;;17.70;11.00;;;;;;;0.44;100.00;100563.85;105286;1270;61343;-79
2022/02/28 08:15:25;;;;;;;14.40;10.10;;;;;;;0.64;100.00;100564.18;105313;1270;61358;-77
2022/02/28 08:17:51;;;;;;;15.90;10.40;;;;;;;0.85;100.00;100565.89;104592;1270;1003077;-76
2022/02/28 08:20:18;;;;;;;18.00;11.20;;;;;;;1.06;99.53;100568.63;105329;1270;61337;-75
2022/02/28 08:22:44;;;;;;;23.90;16.70;;;;;;;1.21;98.97;100570.16;105381;1270;61218;-76
2022/02/28 08:25:11;;;;;;;15.60;10.60;;;;;;;1.35;98.50;100576.95;105098;1270;61402;-75
2022/02/28 08:27:38;;;;;;;14.60;9.40;;;;;;;1.43;97.98;100576.04;105394;1270;61309;-74
2022/02/28 08:30:06;;;;;;;14.70;9.80;;;;;;;1.54;97.53;100574.23;105428;1270;68259;-75
2022/02/28 08:32:32;;;;;;;14.80;9.60;;;;;;;1.62;97.70;100579.80;105483;1270;74429;-75
2022/02/28 08:34:59;;;;;;;13.30;9.60;;;;;;;1.66;96.35;100580.48;105345;1271;61538;-76
2022/02/28 08:37:25;;;;;;;16.80;10.30;;;;;;;1.75;96.47;100581.66;105734;1270;61175;-76
2022/02/28 08:39:52;;;;;;;15.40;11.90;;;;;;;1.86;96.87;100581.08;105762;1270;75415;-76
2022/02/28 08:42:19;;;;;;;15.10;10.40;;;;;;;1.94;96.73;100577.52;105901;1270;69273;-75
2022/02/28 08:44:45;;;;;;;16.10;10.50;;;;;;;1.90;95.91;100582.11;105950;1270;73241;-76
2022/02/28 08:47:12;;;;;;;14.70;10.90;;;;;;;1.87;95.82;100583.52;105806;1270;61144;-75
2022/02/28 08:49:38;;;;;;;21.80;17.30;;;;;;;1.81;95.85;100584.08;105759;1270;61372;-75
2022/02/28 08:52:07;;;;;;;19.80;11.60;;;;;;;1.84;96.32;100583.19;108092;1270;61135;-74
2022/02/28 08:54:37;;;;;;;20.30;12.40;;;;;;;1.92;95.51;100587.17;107879;1270;69253;-75
2022/02/28 08:57:05;;;;;;;12.90;8.40;;;;;;;1.91;95.28;100585.61;108518;1269;59929;-76
2022/02/28 08:59:34;;;;;;;9.40;7.10;;;;;;;1.91;94.54;100588.05;108582;1270;59182;-74
2022/02/28 09:02:03;;;;;;;12.30;8.10;;;;;;;1.94;95.07;100591.01;108518;1269;61088;-75
2022/02/28 09:04:32;;;;;;;17.00;11.20;;;;;;;2.06;94.05;100590.77;108290;1270;75281;-75
2022/02/28 09:06:59;;;;;;;14.90;10.40;;;;;;;2.07;93.39;100589.17;106911;1270;61298;-75
2022/02/28 09:09:26;;;;;;;13.60;9.50;;;;;;;2.10;93.99;100589.16;105383;1270;61291;-75
2022/02/28 09:11:53;;;;;;;13.80;9.90;;;;;;;2.16;94.19;100586.13;105418;1270;61320;-76
2022/02/28 09:14:20;;;;;;;13.00;9.20;;;;;;;2.23;93.69;100586.96;105405;1270;61325;-75
2022/02/28 09:16:47;;;;;;;9.80;7.80;;;;;;;2.27;93.02;100593.43;105366;1270;61254;-76
2022/02/28 09:19:13;;;;;;;11.70;8.50;;;;;;;2.24;92.94;100589.08;105355;1270;70564;-76
2022/02/28 09:21:40;;;;;;;9.40;7.90;;;;;;;2.25;92.09;100595.71;105321;1270;73171;-77
2022/02/28 09:24:06;;;;;;;11.30;8.50;;;;;;;2.19;90.92;100600.85;105417;1270;61342;-75
2022/02/28 09:26:38;;;;;;;12.30;9.40;;;;;;;2.20;92.23;100598.38;105489;1270;61236;-74
2022/02/28 09:29:05;;;;;;;9.90;6.90;;;;;;;2.32;92.45;100600.93;105432;1270;75141;-75
2022/02/28 09:31:33;;;;;;;9.30;6.90;;;;;;;2.38;90.81;100602.63;105405;1270;70105;-75
2022/02/28 09:34:00;;;;;;;10.10;6.30;;;;;;;2.41;90.81;100604.89;105362;1270;73240;-75
2022/02/28 09:36:26;;;;;;;8.30;6.30;;;;;;;2.52;90.80;100608.66;105324;1270;61281;-76
2022/02/28 09:38:53;;;;;;;8.50;6.40;;;;;;;2.63;90.22;100612.43;105361;1270;61370;-76
2022/02/28 09:41:20;;;;;;;10.80;6.80;;;;;;;2.79;90.26;100611.23;105274;1270;74577;-76
2022/02/28 09:43:47;;;;;;;8.30;5.50;;;;;;;2.97;88.33;100613.53;105426;1270;69237;-75
2022/02/28 09:46:18;;;;;;;7.20;5.80;;;;;;;2.90;86.90;100610.80;105319;1270;73439;-76
2022/02/28 09:48:46;;;;;;;10.60;6.70;;;;;;;2.86;87.75;100614.34;105374;1270;61255;-75
2022/02/28 09:51:12;;;;;;;10.60;5.90;;;;;;;3.02;87.89;100616.98;105405;1270;61174;-75
2022/02/28 09:53:39;;;;;;;7.00;5.70;;;;;;;3.18;86.27;100612.09;105388;1270;73468;-75
2022/02/28 09:56:05;;;;;;;10.60;6.40;;;;;;;3.32;86.56;100613.86;105345;1270;67297;-76
2022/02/28 09:58:33;;;;;;;8.00;6.00;;;;;;;3.41;85.79;100608.13;105321;1270;61243;-75
2022/02/28 10:01:00;;;;;;;10.80;7.20;;;;;;;3.42;85.90;100608.83;105296;1270;61304;-76
2022/02/28 10:03:27;;;;;;;8.50;5.90;;;;;;;3.41;85.85;100606.38;105292;1270;62120;-76
2022/02/28 10:05:59;;;;;;;9.40;6.20;;;;;;;3.51;85.75;100608.19;105423;1270;76445;-77
2022/02/28 10:08:40;;;;;;;7.40;5.90;;;;;;;3.61;84.17;100603.34;105154;1270;71254;-76
2022/02/28 10:11:32;;;;;;;9.00;5.60;;;;;;;3.66;83.75;100608.17;105333;1270;74403;-75
2022/02/28 10:14:03;;;;;;;7.50;3.90;;;;;;;3.57;82.35;100606.54;105095;1271;61465;-74
2022/02/28 10:16:45;;;;;;;5.80;4.20;;;;;;;3.42;79.87;100603.37;105461;1270;61285;-75
2022/02/28 10:19:14;;;;;;;9.70;5.20;;;;;;;3.27;81.42;100602.48;105324;1270;75157;-77
2022/02/28 10:21:45;;;;;;;9.90;6.00;;;;;;;3.35;82.35;100600.64;105341;1270;70458;-75
2022/02/28 10:24:21;;;;;;;10.30;5.50;;;;;;;3.48;83.11;100598.39;105330;1270;74089;-76
2022/02/28 10:26:59;;;;;;;7.60;5.40;;;;;;;3.57;82.36;100593.35;105125;1271;61532;-75
2022/02/28 10:29:32;;;;;;;5.00;3.90;;;;;;;3.57;80.72;100594.23;105294;1271;61351;-75
2022/02/28 10:32:05;;;;;;;7.30;5.10;;;;;;;3.48;80.27;100594.88;105302;1270;76377;-76
2022/02/28 10:37:21;;;;;;;5.00;4.00;;;;;;;3.62;81.23;100591.17;105268;1270;74239;-74
2022/02/28 10:40:00;;;;;;;5.60;3.90;;;;;;;3.59;76.15;100591.57;105270;1270;61345;-76
2022/02/28 10:42:51;;;;;;;7.10;4.50;;;;;;;3.43;76.81;100597.75;105364;1269;61165;-76
2022/02/28 10:45:24;;;;;;;7.00;4.90;;;;;;;3.40;78.11;100590.59;105429;1270;76098;-76
2022/02/28 10:47:53;;;;;;;7.50;4.30;;;;;;;3.32;77.74;100595.77;105323;1270;70299;-75
2022/02/28 10:50:38;;;;;;;7.70;4.30;;;;;;;3.16;77.65;100595.07;105367;1270;74436;-75
2022/02/28 10:53:17;;;;;;;6.80;4.70;;;;;;;2.97;77.51;100598.25;105546;1270;61373;-77
2022/02/28 10:55:46;;;;;;;8.10;4.80;;;;;;;2.97;78.22;100598.25;104621;1270;1003040;-75
2022/02/28 10:58:14;;;;;;;8.90;5.50;;;;;;;3.04;77.49;100597.48;105509;1270;74713;-76
2022/02/28 11:00:56;;;;;;;6.10;4.50;;;;;;;3.17;77.21;100591.89;105617;1270;68084;-76
2022/02/28 11:03:28;;;;;;;7.50;5.10;;;;;;;3.51;75.47;100587.27;105295;1270;72767;-77